createdAt,value
2017-08-07T00:00:43.316Z,77.80
2017-08-07T00:03:11.588Z,77.80
2017-08-07T00:05:39.852Z,78.50
2017-08-07T00:08:08.132Z,78.50
2017-08-07T00:10:36.396Z,78.20
2017-08-07T00:13:04.687Z,78.00
2017-08-07T00:15:33.706Z,80.00
2017-08-07T00:18:01.976Z,79.20
2017-08-07T00:20:31.914Z,77.70
2017-08-07T00:23:00.184Z,77.60
2017-08-07T00:25:29.256Z,77.30
2017-08-07T00:27:57.529Z,77.50
2017-08-07T00:30:25.792Z,77.80
2017-08-07T00:32:54.856Z,78.50
2017-08-07T00:35:23.451Z,78.50
2017-08-07T00:37:52.521Z,79.80
2017-08-07T00:40:21.680Z,79.70
2017-08-07T00:42:49.931Z,79.60
2017-08-07T00:45:18.211Z,79.70
2017-08-07T00:47:46.472Z,79.80
2017-08-07T00:50:14.783Z,79.60
2017-08-07T00:52:43.056Z,79.60
2017-08-07T00:55:11.325Z,79.70
2017-08-07T00:57:39.608Z,80.30
2017-08-07T01:00:07.880Z,80.30
2017-08-07T01:02:36.192Z,79.80
2017-08-07T01:05:04.444Z,80.10
2017-08-07T01:07:32.706Z,79.60
2017-08-07T01:10:00.987Z,79.10
2017-08-07T01:12:29.259Z,79.50
2017-08-07T01:14:57.560Z,80.00
2017-08-07T01:17:25.825Z,79.70
2017-08-07T01:19:54.864Z,80.30
2017-08-07T01:22:23.140Z,80.20
2017-08-07T01:24:51.402Z,80.00
2017-08-07T01:27:19.712Z,80.70
2017-08-07T01:29:47.980Z,80.40
2017-08-07T01:32:16.244Z,80.50
2017-08-07T01:34:44.523Z,80.40
2017-08-07T01:37:12.804Z,80.30
2017-08-07T01:39:41.100Z,80.20
2017-08-07T01:42:10.138Z,80.30
2017-08-07T01:44:38.397Z,80.20
2017-08-07T01:47:06.680Z,80.10
2017-08-07T01:49:34.944Z,80.30
2017-08-07T01:52:03.244Z,80.30
2017-08-07T01:54:31.503Z,80.10
2017-08-07T01:56:59.772Z,79.80
2017-08-07T01:59:28.072Z,79.30
2017-08-07T02:01:56.336Z,79.20
2017-08-07T02:04:24.652Z,79.10
2017-08-07T02:06:52.920Z,79.20
2017-08-07T02:09:21.185Z,79.50
2017-08-07T02:11:49.460Z,80.10
2017-08-07T02:14:17.723Z,80.10
2017-08-07T02:16:46.026Z,80.00
2017-08-07T02:19:15.053Z,81.00
2017-08-07T02:21:43.320Z,80.40
2017-08-07T02:24:11.596Z,80.20
2017-08-07T02:26:39.855Z,80.10
2017-08-07T02:29:08.164Z,80.00
2017-08-07T02:31:36.449Z,80.10
2017-08-07T02:34:04.712Z,80.20
2017-08-07T02:36:32.991Z,80.20
2017-08-07T02:39:01.256Z,80.50
2017-08-07T02:41:29.561Z,79.70
2017-08-07T02:43:58.601Z,79.40
2017-08-07T02:46:26.912Z,79.50
2017-08-07T02:48:55.956Z,79.50
2017-08-07T02:51:24.221Z,79.40
2017-08-07T02:53:52.810Z,80.30
2017-08-07T02:56:21.064Z,80.20
2017-08-07T02:58:49.324Z,80.20
2017-08-07T03:01:18.509Z,80.30
2017-08-07T03:03:47.544Z,80.50
2017-08-07T03:06:15.848Z,80.30
2017-08-07T03:08:44.875Z,80.10
2017-08-07T03:11:13.143Z,79.50
2017-08-07T03:13:41.424Z,79.20
2017-08-07T03:16:09.683Z,78.70
2017-08-07T03:18:37.968Z,78.80
2017-08-07T03:21:06.233Z,79.40
2017-08-07T03:23:35.288Z,79.90
2017-08-07T03:26:03.548Z,79.90
2017-08-07T03:28:31.831Z,80.00
2017-08-07T03:31:00.860Z,81.10
2017-08-07T03:33:29.128Z,80.40
2017-08-07T03:35:57.412Z,81.70
2017-08-07T03:38:25.948Z,81.30
2017-08-07T03:40:54.248Z,81.00
2017-08-07T03:43:22.513Z,80.70
2017-08-07T03:45:50.776Z,80.60
2017-08-07T03:48:19.056Z,81.20
2017-08-07T03:50:48.088Z,80.90
2017-08-07T03:53:16.588Z,80.90
2017-08-07T03:55:45.624Z,82.20
2017-08-07T03:58:13.883Z,81.30
2017-08-07T04:00:42.164Z,81.00
2017-08-07T04:03:10.428Z,81.20
2017-08-07T04:05:38.728Z,81.90
2017-08-07T04:08:07.756Z,81.90
2017-08-07T04:10:36.020Z,81.80
2017-08-07T04:13:04.304Z,81.80
2017-08-07T04:15:32.572Z,81.80
2017-08-07T04:18:00.892Z,81.80
2017-08-07T04:20:29.152Z,81.80
2017-08-07T04:22:57.433Z,81.90
2017-08-07T04:25:25.709Z,81.90
2017-08-07T04:27:54.756Z,82.00
2017-08-07T04:30:23.152Z,82.00
2017-08-07T04:32:51.411Z,82.00
2017-08-07T04:35:19.671Z,81.90
2017-08-07T04:37:47.955Z,82.00
2017-08-07T04:40:16.983Z,82.00
2017-08-07T04:42:45.284Z,81.90
2017-08-07T04:45:13.560Z,81.60
2017-08-07T04:47:42.584Z,82.10
2017-08-07T04:50:10.881Z,82.10
2017-08-07T04:52:39.144Z,82.10
2017-08-07T04:55:07.439Z,82.10
2017-08-07T04:57:35.708Z,81.60
2017-08-07T05:00:03.968Z,81.30
2017-08-07T05:02:32.253Z,80.90
2017-08-07T05:05:00.515Z,80.10
2017-08-07T05:07:28.820Z,79.70
2017-08-07T05:09:57.852Z,78.90
2017-08-07T05:12:26.121Z,79.30
2017-08-07T05:14:54.400Z,79.60
2017-08-07T05:17:22.678Z,79.40
2017-08-07T05:19:50.992Z,79.20
2017-08-07T05:22:19.251Z,76.80
2017-08-07T05:24:47.519Z,76.70
2017-08-07T05:27:15.799Z,76.00
2017-08-07T05:29:44.065Z,76.80
2017-08-07T05:32:12.355Z,76.40
2017-08-07T05:34:41.383Z,74.90
2017-08-07T05:37:09.651Z,74.80
2017-08-07T05:39:37.932Z,75.00
2017-08-07T05:42:06.214Z,75.10
2017-08-07T05:44:35.271Z,75.60
2017-08-07T05:47:03.540Z,75.20
2017-08-07T05:49:31.799Z,73.10
2017-08-07T05:52:00.079Z,73.50
2017-08-07T05:54:29.111Z,72.20
2017-08-07T05:56:58.204Z,72.10
2017-08-07T05:59:26.472Z,72.00
2017-08-07T06:01:54.756Z,70.70
2017-08-07T06:04:23.799Z,70.20
2017-08-07T06:06:52.065Z,70.10
2017-08-07T06:09:20.361Z,71.30
2017-08-07T06:11:49.383Z,69.80
2017-08-07T06:14:17.656Z,69.00
2017-08-07T06:16:45.932Z,69.10
2017-08-07T06:19:14.191Z,70.20
2017-08-07T06:21:42.495Z,69.60
2017-08-07T06:24:11.524Z,68.40
2017-08-07T06:26:39.796Z,68.20
2017-08-07T06:29:08.074Z,67.90
2017-08-07T06:31:36.332Z,68.50
2017-08-07T06:34:04.628Z,69.00
2017-08-07T06:36:33.020Z,69.20
2017-08-07T06:39:01.284Z,69.40
2017-08-07T06:41:29.564Z,70.10
2017-08-07T06:43:57.844Z,70.20
2017-08-07T06:46:26.140Z,70.90
2017-08-07T06:48:54.416Z,68.70
2017-08-07T06:51:22.676Z,68.80
2017-08-07T06:53:50.960Z,69.60
2017-08-07T06:56:19.224Z,70.30
2017-08-07T06:58:47.520Z,70.80
2017-08-07T07:01:16.543Z,70.20
2017-08-07T07:03:44.807Z,70.20
2017-08-07T07:06:13.113Z,69.00
2017-08-07T07:08:41.371Z,70.50
2017-08-07T07:11:09.644Z,70.50
2017-08-07T07:13:38.671Z,71.80
2017-08-07T07:16:06.972Z,71.80
2017-08-07T07:18:35.240Z,71.40
2017-08-07T07:21:03.495Z,70.40
2017-08-07T07:23:31.781Z,70.80
2017-08-07T07:26:01.020Z,70.20
2017-08-07T07:28:29.315Z,70.10
2017-08-07T07:30:58.356Z,70.00
2017-08-07T07:33:26.635Z,69.80
2017-08-07T07:35:55.112Z,69.60
2017-08-07T07:38:24.145Z,69.10
2017-08-07T07:40:52.405Z,69.10
2017-08-07T07:43:20.718Z,69.50
2017-08-07T07:45:48.979Z,68.60
2017-08-07T07:48:17.247Z,67.50
2017-08-07T07:50:45.548Z,68.10
2017-08-07T07:53:13.804Z,69.00
2017-08-07T07:55:42.067Z,68.30
2017-08-07T07:58:10.488Z,67.20
2017-08-07T08:00:39.525Z,66.10
2017-08-07T08:03:07.788Z,66.60
2017-08-07T08:05:36.099Z,66.20
2017-08-07T08:08:05.139Z,65.80
2017-08-07T08:10:33.412Z,65.80
2017-08-07T08:13:02.743Z,64.30
2017-08-07T08:15:31.781Z,64.30
2017-08-07T08:18:00.043Z,64.20
2017-08-07T08:20:28.546Z,64.20
2017-08-07T08:22:57.577Z,62.00
2017-08-07T08:25:25.863Z,62.00
2017-08-07T08:27:54.167Z,62.30
2017-08-07T08:30:22.441Z,62.40
2017-08-07T08:32:51.056Z,62.50
2017-08-07T08:35:20.120Z,63.30
2017-08-07T08:37:48.387Z,62.60
2017-08-07T08:40:16.646Z,60.20
2017-08-07T08:42:44.952Z,59.60
2017-08-07T08:45:13.232Z,60.10
2017-08-07T08:47:41.480Z,58.90
2017-08-07T08:50:09.779Z,57.90
2017-08-07T08:52:38.047Z,58.50
2017-08-07T08:55:06.343Z,60.10
2017-08-07T08:57:35.412Z,57.40
2017-08-07T09:00:04.440Z,56.80
2017-08-07T09:02:32.708Z,56.70
2017-08-07T09:05:01.004Z,54.40
2017-08-07T09:07:30.036Z,57.00
2017-08-07T09:09:58.308Z,57.00
2017-08-07T09:12:26.703Z,56.10
2017-08-07T09:14:54.974Z,58.20
2017-08-07T09:17:24.005Z,55.20
2017-08-07T09:19:53.120Z,54.80
2017-08-07T09:22:21.392Z,54.80
2017-08-07T09:24:50.433Z,56.30
2017-08-07T09:27:18.737Z,55.70
2017-08-07T09:29:47.767Z,54.00
2017-08-07T09:32:16.032Z,53.90
2017-08-07T09:34:44.319Z,52.00
2017-08-07T09:37:12.587Z,54.50
2017-08-07T09:39:40.847Z,55.70
2017-08-07T09:42:09.932Z,51.80
2017-08-07T09:44:38.971Z,51.30
2017-08-07T09:47:07.239Z,51.30
2017-08-07T09:49:35.543Z,50.90
2017-08-07T09:52:04.579Z,51.40
2017-08-07T09:54:32.840Z,51.20
2017-08-07T09:57:01.155Z,50.90
2017-08-07T09:59:29.423Z,52.60
2017-08-07T10:01:57.700Z,52.80
2017-08-07T10:04:26.004Z,51.00
2017-08-07T10:06:54.276Z,52.80
2017-08-07T10:09:22.540Z,52.50
2017-08-07T10:11:51.617Z,52.70
2017-08-07T10:14:19.888Z,52.20
2017-08-07T10:16:48.919Z,52.00
2017-08-07T10:19:17.219Z,51.80
2017-08-07T10:21:46.260Z,47.30
2017-08-07T10:24:14.523Z,47.20
2017-08-07T10:26:42.884Z,47.20
2017-08-07T10:29:11.152Z,45.90
2017-08-07T10:31:39.458Z,44.60
2017-08-07T10:34:07.747Z,44.00
2017-08-07T10:36:36.030Z,45.10
2017-08-07T10:39:04.296Z,43.10
2017-08-07T10:41:32.618Z,44.40
2017-08-07T10:44:00.892Z,42.00
2017-08-07T10:46:29.176Z,42.70
2017-08-07T10:48:57.488Z,41.90
2017-08-07T10:51:26.527Z,41.70
2017-08-07T10:53:54.794Z,42.20
2017-08-07T10:56:23.100Z,39.00
2017-08-07T10:58:51.376Z,39.20
2017-08-07T11:01:19.644Z,38.90
2017-08-07T11:03:47.975Z,40.90
2017-08-07T11:06:17.008Z,41.20
2017-08-07T11:08:45.275Z,41.20
2017-08-07T11:11:13.682Z,43.80
2017-08-07T11:13:42.940Z,41.60
2017-08-07T11:16:12.300Z,41.00
2017-08-07T11:18:40.714Z,41.00
2017-08-07T11:21:09.735Z,40.20
2017-08-07T11:23:38.003Z,40.10
2017-08-07T11:26:06.316Z,39.80
2017-08-07T11:28:35.363Z,41.90
2017-08-07T11:31:03.628Z,41.80
2017-08-07T11:33:31.935Z,41.30
2017-08-07T11:36:00.216Z,40.70
2017-08-07T11:38:28.497Z,42.80
2017-08-07T11:40:56.815Z,38.40
2017-08-07T11:43:25.882Z,39.50
2017-08-07T11:45:54.928Z,35.30
2017-08-07T11:48:23.283Z,34.40
2017-08-07T11:50:51.536Z,34.10
2017-08-07T11:53:19.807Z,37.20
2017-08-07T11:55:48.127Z,36.60
2017-08-07T11:58:16.403Z,37.20
2017-08-07T12:00:44.675Z,34.20
2017-08-07T12:03:12.972Z,32.10
2017-08-07T12:05:41.274Z,31.50
2017-08-07T12:08:09.664Z,32.30
2017-08-07T12:10:37.987Z,35.00
2017-08-07T12:13:06.254Z,34.50
2017-08-07T12:15:34.544Z,33.90
2017-08-07T12:18:02.868Z,35.40
2017-08-07T12:20:31.160Z,41.80
2017-08-07T12:22:59.445Z,36.70
2017-08-07T12:25:27.751Z,33.90
2017-08-07T12:27:56.796Z,34.80
2017-08-07T12:30:25.056Z,34.60
2017-08-07T12:32:53.360Z,32.90
2017-08-07T12:35:22.402Z,29.40
2017-08-07T12:37:50.676Z,29.40
2017-08-07T12:40:18.964Z,34.40
2017-08-07T12:42:47.996Z,36.20
2017-08-07T12:45:16.255Z,35.90
2017-08-07T12:47:44.820Z,32.90
2017-08-07T12:50:13.083Z,29.50
2017-08-07T12:52:41.352Z,32.20
2017-08-07T12:55:11.564Z,27.30
2017-08-07T12:57:39.831Z,27.20
2017-08-07T13:00:08.103Z,32.10
2017-08-07T13:02:37.193Z,29.00
2017-08-07T13:05:06.224Z,30.60
2017-08-07T13:07:34.487Z,30.60
2017-08-07T13:10:02.779Z,29.20
2017-08-07T13:12:31.824Z,27.40
2017-08-07T13:15:00.097Z,27.40
2017-08-07T13:17:28.395Z,28.30
2017-08-07T13:19:57.473Z,29.50
2017-08-07T13:22:26.512Z,32.80
2017-08-07T13:24:55.012Z,32.70
2017-08-07T13:27:23.272Z,28.20
2017-08-07T13:29:52.317Z,31.90
2017-08-07T13:32:20.631Z,31.90
2017-08-07T13:34:48.895Z,28.60
2017-08-07T13:37:17.163Z,29.40
2017-08-07T13:39:45.454Z,28.40
2017-08-07T13:42:13.734Z,27.00
2017-08-07T13:44:41.992Z,29.70
2017-08-07T13:47:10.299Z,29.40
2017-08-07T13:49:38.572Z,30.00
2017-08-07T13:52:06.829Z,29.40
2017-08-07T13:54:35.155Z,29.80
2017-08-07T13:57:03.424Z,29.80
2017-08-07T13:59:31.679Z,28.10
2017-08-07T14:02:00.021Z,26.60
2017-08-07T14:04:28.295Z,25.40
2017-08-07T14:06:56.572Z,29.30
2017-08-07T14:09:24.871Z,25.40
2017-08-07T14:11:53.327Z,25.50
2017-08-07T14:14:21.832Z,26.00
2017-08-07T14:16:50.337Z,30.30
2017-08-07T14:19:19.363Z,30.70
2017-08-07T14:21:47.860Z,30.70
2017-08-07T14:24:16.160Z,29.40
2017-08-07T14:26:44.432Z,31.00
2017-08-07T14:29:12.704Z,29.20
2017-08-07T14:31:41.024Z,30.60
2017-08-07T14:34:10.060Z,28.20
2017-08-07T14:36:38.319Z,28.10
2017-08-07T14:39:06.623Z,26.80
2017-08-07T14:41:35.655Z,25.90
2017-08-07T14:44:03.928Z,25.70
2017-08-07T14:46:32.247Z,26.10
2017-08-07T14:49:01.281Z,25.10
2017-08-07T14:51:29.560Z,25.00
2017-08-07T14:53:58.037Z,23.80
2017-08-07T14:56:26.312Z,27.40
2017-08-07T14:58:55.340Z,25.90
2017-08-07T15:01:23.647Z,25.80
2017-08-07T15:03:52.688Z,28.90
2017-08-07T15:06:20.954Z,28.80
2017-08-07T15:08:49.484Z,26.60
2017-08-07T15:11:17.756Z,26.10
2017-08-07T15:13:46.015Z,26.00
2017-08-07T15:16:14.344Z,28.10
2017-08-07T15:18:42.609Z,28.70
2017-08-07T15:21:10.884Z,30.80
2017-08-07T15:23:39.175Z,32.70
2017-08-07T15:26:07.446Z,28.50
2017-08-07T15:28:35.716Z,28.50
2017-08-07T15:31:04.027Z,26.80
2017-08-07T15:33:32.283Z,27.00
2017-08-07T15:36:00.547Z,28.70
2017-08-07T15:38:28.857Z,29.30
2017-08-07T15:40:57.129Z,28.00
2017-08-07T15:43:25.404Z,28.30
2017-08-07T15:45:54.496Z,28.10
2017-08-07T15:48:23.528Z,27.20
2017-08-07T15:50:51.812Z,27.10
2017-08-07T15:53:20.128Z,25.90
2017-08-07T15:55:48.392Z,26.20
2017-08-07T15:58:16.664Z,26.90
2017-08-07T16:00:44.949Z,28.10
2017-08-07T16:03:13.224Z,27.10
2017-08-07T16:05:41.483Z,27.90
2017-08-07T16:08:10.547Z,28.80
2017-08-07T16:10:39.604Z,28.80
2017-08-07T16:13:07.868Z,28.60
2017-08-07T16:15:36.164Z,29.50
2017-08-07T16:18:04.423Z,30.00
2017-08-07T16:20:33.464Z,29.10
2017-08-07T16:23:01.771Z,28.90
2017-08-07T16:25:30.812Z,29.90
2017-08-07T16:27:59.074Z,29.80
2017-08-07T16:30:32.388Z,29.50
2017-08-07T16:33:01.446Z,28.50
2017-08-07T16:35:29.712Z,28.50
2017-08-07T16:37:58.195Z,29.20
2017-08-07T16:40:26.459Z,28.70
2017-08-07T16:42:55.503Z,29.80
2017-08-07T16:45:23.823Z,29.70
2017-08-07T16:47:52.365Z,29.30
2017-08-07T16:50:21.408Z,28.60
2017-08-07T16:52:49.719Z,28.50
2017-08-07T16:55:17.996Z,29.10
2017-08-07T16:57:46.268Z,29.60
2017-08-07T17:00:14.584Z,30.00
2017-08-07T17:02:43.624Z,30.70
2017-08-07T17:05:11.909Z,31.40
2017-08-07T17:07:41.000Z,31.30
2017-08-07T17:12:44.105Z,30.30
2017-08-07T17:15:12.381Z,29.50
2017-08-07T17:17:40.695Z,30.60
2017-08-07T17:20:09.112Z,29.30
2017-08-07T17:22:37.446Z,30.30
2017-08-07T17:25:06.471Z,30.00
2017-08-07T17:27:34.775Z,29.90
2017-08-07T17:30:03.816Z,30.40
2017-08-07T17:32:32.088Z,30.40
2017-08-07T17:35:00.580Z,31.20
2017-08-07T17:37:29.640Z,30.60
2017-08-07T17:39:57.935Z,30.40
2017-08-07T17:42:27.009Z,30.20
2017-08-07T17:44:56.052Z,32.40
2017-08-07T17:47:24.320Z,32.40
2017-08-07T17:49:52.625Z,33.40
2017-08-07T17:52:20.904Z,31.30
2017-08-07T17:54:49.176Z,30.00
2017-08-07T17:57:17.468Z,31.00
2017-08-07T17:59:45.776Z,32.70
2017-08-07T18:02:14.060Z,34.30
2017-08-07T18:04:42.333Z,34.30
2017-08-07T18:07:10.616Z,33.70
2017-08-07T18:09:38.899Z,34.30
2017-08-07T18:12:07.976Z,36.20
2017-08-07T18:14:37.017Z,36.00
2017-08-07T18:17:05.301Z,35.90
2017-08-07T18:19:33.597Z,36.50
2017-08-07T18:22:01.876Z,37.10
2017-08-07T18:24:30.182Z,37.60
2017-08-07T18:26:58.461Z,38.60
2017-08-07T18:29:30.049Z,38.40
2017-08-07T18:31:58.344Z,38.40
2017-08-07T18:34:26.622Z,38.30
2017-08-07T18:36:55.346Z,38.60
2017-08-07T18:39:24.393Z,40.50
2017-08-07T18:41:52.998Z,40.40
2017-08-07T18:44:21.248Z,40.60
2017-08-07T18:46:50.288Z,41.60
2017-08-07T18:49:18.581Z,41.60
2017-08-07T18:51:46.844Z,42.00
2017-08-07T18:54:15.152Z,43.20
2017-08-07T18:56:43.438Z,43.80
2017-08-07T18:59:11.704Z,43.70
2017-08-07T19:01:39.992Z,44.20
2017-08-07T19:04:08.265Z,45.90
2017-08-07T19:06:37.582Z,47.30
2017-08-07T19:09:05.917Z,47.20
2017-08-07T19:11:34.184Z,47.10
2017-08-07T19:14:03.279Z,47.80
2017-08-07T19:16:31.541Z,47.70
2017-08-07T19:18:59.865Z,48.10
2017-08-07T19:21:28.138Z,47.70
2017-08-07T19:23:57.223Z,50.60
2017-08-07T19:26:25.496Z,50.00
2017-08-07T19:28:53.756Z,49.80
2017-08-07T19:31:22.103Z,50.90
2017-08-07T19:33:51.144Z,50.10
2017-08-07T19:36:19.486Z,50.10
2017-08-07T19:38:47.782Z,50.50
2017-08-07T19:41:16.059Z,51.00
2017-08-07T19:43:44.380Z,52.40
2017-08-07T19:46:12.644Z,52.50
2017-08-07T19:48:40.907Z,52.00
2017-08-07T19:51:09.188Z,52.70
2017-08-07T19:53:37.454Z,53.60
2017-08-07T19:56:05.764Z,53.60
2017-08-07T19:58:34.032Z,53.60
2017-08-07T20:01:02.440Z,52.50
2017-08-07T20:03:30.724Z,53.50
2017-08-07T20:05:59.757Z,53.40
2017-08-07T20:08:28.207Z,53.30
2017-08-07T20:10:56.471Z,54.40
2017-08-07T20:13:24.745Z,54.90
2017-08-07T20:15:53.023Z,55.70
2017-08-07T20:18:21.292Z,55.00
2017-08-07T20:20:49.603Z,55.20
2017-08-07T20:23:17.876Z,55.50
2017-08-07T20:25:46.166Z,55.70
2017-08-07T20:28:14.460Z,56.20
2017-08-07T20:30:42.712Z,56.30
2017-08-07T20:33:11.180Z,57.20
2017-08-07T20:35:39.444Z,56.60
2017-08-07T20:38:08.467Z,57.70
2017-08-07T20:40:36.754Z,57.50
2017-08-07T20:43:05.023Z,58.30
2017-08-07T20:45:33.348Z,57.60
2017-08-07T20:48:01.624Z,58.70
2017-08-07T20:50:29.883Z,59.00
2017-08-07T20:52:58.177Z,58.30
2017-08-07T20:55:26.454Z,58.30
2017-08-07T20:57:54.713Z,58.50
2017-08-07T21:00:23.981Z,59.60
2017-08-07T21:02:52.249Z,59.60
2017-08-07T21:05:20.532Z,60.40
2017-08-07T21:07:49.603Z,59.70
2017-08-07T21:10:18.656Z,60.50
2017-08-07T21:12:46.903Z,60.50
2017-08-07T21:15:15.237Z,60.40
2017-08-07T21:17:44.628Z,60.20
2017-08-07T21:20:12.931Z,60.40
2017-08-07T21:22:41.204Z,60.50
2017-08-07T21:25:10.244Z,61.70
2017-08-07T21:27:38.527Z,60.90
2017-08-07T21:30:06.787Z,61.40
2017-08-07T21:32:35.087Z,61.50
2017-08-07T21:35:04.120Z,61.80
2017-08-07T21:37:32.428Z,61.70
2017-08-07T21:40:01.467Z,62.70
2017-08-07T21:42:29.719Z,62.70
2017-08-07T21:44:58.231Z,62.00
2017-08-07T21:47:27.271Z,61.60
2017-08-07T21:49:55.584Z,61.50
2017-08-07T21:52:23.869Z,61.60
2017-08-07T21:54:52.123Z,61.80
2017-08-07T21:57:20.412Z,62.50
2017-08-07T21:59:48.679Z,62.30
2017-08-07T22:02:16.996Z,62.80
2017-08-07T22:04:45.272Z,62.70
2017-08-07T22:07:13.559Z,62.70
2017-08-07T22:09:41.836Z,62.20
2017-08-07T22:12:10.104Z,60.90
2017-08-07T22:14:38.387Z,61.70
2017-08-07T22:17:07.412Z,62.10
2017-08-07T22:19:35.728Z,62.00
2017-08-07T22:22:04.765Z,63.30
2017-08-07T22:24:33.029Z,63.10
2017-08-07T22:27:01.331Z,63.60
2017-08-07T22:29:30.356Z,64.00
2017-08-07T22:31:58.728Z,63.90
2017-08-07T22:34:26.984Z,64.50
2017-08-07T22:36:55.251Z,64.50
2017-08-07T22:39:23.527Z,65.80
2017-08-07T22:41:51.800Z,65.60
2017-08-07T22:44:20.888Z,65.50
2017-08-07T22:46:49.919Z,65.90
2017-08-07T22:49:18.196Z,65.90
2017-08-07T22:51:46.484Z,66.90
2017-08-07T22:54:15.528Z,67.10
2017-08-07T22:56:44.252Z,67.20
2017-08-07T22:59:13.288Z,66.60
2017-08-07T23:01:41.563Z,66.50
2017-08-07T23:04:09.835Z,66.70
2017-08-07T23:06:38.868Z,67.40
2017-08-07T23:09:07.199Z,67.40
2017-08-07T23:11:35.475Z,67.90
2017-08-07T23:14:03.754Z,67.90
2017-08-07T23:16:32.027Z,67.60
2017-08-07T23:19:00.303Z,67.20
2017-08-07T23:21:28.596Z,67.10
2017-08-07T23:23:56.877Z,66.80
2017-08-07T23:26:25.140Z,67.10
2017-08-07T23:28:53.484Z,66.90
2017-08-07T23:31:22.517Z,67.10
2017-08-07T23:33:50.828Z,67.00
2017-08-07T23:36:19.123Z,67.70
2017-08-07T23:38:47.395Z,67.30
2017-08-07T23:41:15.705Z,67.60
2017-08-07T23:43:44.736Z,67.30
2017-08-07T23:46:13.019Z,66.50
2017-08-07T23:48:41.296Z,67.20
2017-08-07T23:51:10.347Z,67.60
2017-08-07T23:53:38.607Z,67.60
2017-08-07T23:56:06.883Z,67.50
2017-08-07T23:58:35.152Z,67.60
